createdAt,value
2019-03-15T00:00:49.929Z,3.4
2019-03-15T00:02:50.410Z,3.4
2019-03-15T00:04:50.264Z,3.3
2019-03-15T00:06:50.501Z,3.3
2019-03-15T00:08:49.941Z,3.5
2019-03-15T00:10:49.562Z,3.3
2019-03-15T00:12:50.078Z,3.3
2019-03-15T00:14:50.413Z,3.2
2019-03-15T00:16:49.968Z,2.8
2019-03-15T00:18:50.301Z,2.8
2019-03-15T00:20:49.719Z,2.8
2019-03-15T00:22:50.171Z,3.5
2019-03-15T00:24:50.490Z,3.5
2019-03-15T00:26:49.971Z,2.7
2019-03-15T00:28:50.369Z,3.3
2019-03-15T00:30:49.989Z,3.3
2019-03-15T00:32:50.400Z,3.0
2019-03-15T00:34:50.257Z,3.6
2019-03-15T00:36:49.777Z,3.1
2019-03-15T00:38:50.169Z,3.2
2019-03-15T00:40:50.520Z,3.2
2019-03-15T00:42:49.904Z,3.3
2019-03-15T00:44:50.300Z,3.1
2019-03-15T00:46:49.762Z,3.1
2019-03-15T00:48:50.174Z,3.4
2019-03-15T00:50:49.578Z,3.2
2019-03-15T00:52:49.930Z,3.2
2019-03-15T00:54:50.263Z,3.5
2019-03-15T00:56:49.756Z,3.2
2019-03-15T00:58:50.216Z,3.2
2019-03-15T01:00:49.608Z,3.6
2019-03-15T01:02:50.237Z,3.6
2019-03-15T01:04:50.183Z,3.5
2019-03-15T01:06:49.700Z,3.6
2019-03-15T01:08:50.222Z,3.4
2019-03-15T01:10:49.559Z,3.5
2019-03-15T01:12:51.153Z,3.5
2019-03-15T01:14:49.641Z,3.4
2019-03-15T01:16:50.228Z,3.3
2019-03-15T01:18:49.611Z,3.4
2019-03-15T01:20:50.094Z,3.4
2019-03-15T01:22:50.427Z,3.8
2019-03-15T01:24:49.858Z,3.7
2019-03-15T01:26:50.318Z,3.7
2019-03-15T01:28:49.661Z,3.8
2019-03-15T01:30:50.132Z,3.8
2019-03-15T01:32:50.520Z,4.1
2019-03-15T01:34:50.501Z,4.3
2019-03-15T01:36:50.155Z,4.4
2019-03-15T01:38:49.596Z,4.2
2019-03-15T01:40:49.984Z,4.2
2019-03-15T01:42:50.384Z,3.7
2019-03-15T01:44:49.707Z,4.1
2019-03-15T01:46:50.218Z,3.6
2019-03-15T01:48:49.591Z,3.6
2019-03-15T01:50:50.532Z,4.0
2019-03-15T01:52:50.002Z,4.0
2019-03-15T01:54:50.362Z,3.7
2019-03-15T01:56:50.052Z,3.9
2019-03-15T01:58:50.471Z,3.9
2019-03-15T02:00:49.812Z,3.6
2019-03-15T02:02:50.257Z,3.7
2019-03-15T02:04:50.259Z,3.4
2019-03-15T02:06:50.063Z,3.1
2019-03-15T02:08:50.394Z,3.1
2019-03-15T02:10:49.867Z,3.7
2019-03-15T02:12:50.483Z,3.7
2019-03-15T02:14:49.937Z,3.2
2019-03-15T02:16:50.447Z,3.3
2019-03-15T02:18:49.879Z,3.3
2019-03-15T02:20:50.217Z,3.3
2019-03-15T02:22:49.636Z,3.5
2019-03-15T02:24:50.076Z,3.2
2019-03-15T02:26:49.673Z,3.2
2019-03-15T02:28:50.090Z,3.2
2019-03-15T02:30:49.584Z,3.2
2019-03-15T02:32:50.028Z,3.6
2019-03-15T02:34:50.260Z,3.6
2019-03-15T02:36:49.806Z,3.6
2019-03-15T02:38:50.254Z,3.7
2019-03-15T02:40:49.612Z,3.5
2019-03-15T02:42:50.147Z,3.3
2019-03-15T02:44:49.748Z,3.3
2019-03-15T02:46:49.742Z,3.8
2019-03-15T02:48:50.226Z,3.8
2019-03-15T02:50:49.687Z,3.8
2019-03-15T02:52:50.019Z,3.6
2019-03-15T02:54:50.393Z,3.6
2019-03-15T02:56:50.049Z,3.8
2019-03-15T02:58:50.383Z,4.3
2019-03-15T03:00:49.866Z,4.5
2019-03-15T03:02:50.319Z,4.3
2019-03-15T03:04:50.327Z,4.3
2019-03-15T03:06:49.973Z,3.9
2019-03-15T03:08:49.628Z,3.9
2019-03-15T03:10:50.006Z,3.8
2019-03-15T03:12:50.416Z,4.1
2019-03-15T03:14:49.838Z,4.6
2019-03-15T03:16:50.513Z,4.6
2019-03-15T03:18:49.894Z,4.4
2019-03-15T03:20:50.194Z,4.3
2019-03-15T03:22:50.509Z,4.7
2019-03-15T03:24:51.161Z,4.7
2019-03-15T03:26:49.604Z,4.5
2019-03-15T03:28:50.081Z,4.5
2019-03-15T03:30:50.496Z,4.9
2019-03-15T03:32:49.917Z,4.9
2019-03-15T03:34:49.639Z,4.2
2019-03-15T03:36:50.263Z,4.2
2019-03-15T03:38:49.836Z,4.1
2019-03-15T03:40:50.314Z,4.6
2019-03-15T03:42:49.715Z,4.6
2019-03-15T03:44:50.211Z,4.8
2019-03-15T03:46:49.834Z,4.8
2019-03-15T03:48:50.187Z,4.7
2019-03-15T03:50:49.659Z,4.6
2019-03-15T03:52:50.162Z,4.7
2019-03-15T03:54:50.484Z,4.4
2019-03-15T03:56:50.080Z,4.4
2019-03-15T03:58:50.427Z,5.3
2019-03-15T04:00:49.939Z,4.8
2019-03-15T04:02:53.534Z,4.5
2019-03-15T04:04:50.457Z,4.5
2019-03-15T04:06:50.026Z,4.8
2019-03-15T04:08:49.913Z,4.6
2019-03-15T04:10:50.363Z,4.9
2019-03-15T04:12:49.806Z,4.6
2019-03-15T04:14:50.292Z,4.6
2019-03-15T04:16:49.739Z,4.6
2019-03-15T04:18:50.120Z,4.4
2019-03-15T04:20:50.493Z,3.9
2019-03-15T04:22:49.836Z,4.5
2019-03-15T04:24:50.168Z,4.5
2019-03-15T04:26:49.643Z,4.8
2019-03-15T04:28:50.036Z,4.7
2019-03-15T04:30:50.456Z,4.7
2019-03-15T04:32:49.856Z,4.4
2019-03-15T04:34:49.651Z,4.4
2019-03-15T04:36:50.266Z,4.8
2019-03-15T04:38:49.679Z,4.4
2019-03-15T04:40:50.175Z,4.4
2019-03-15T04:42:49.632Z,4.4
2019-03-15T04:44:50.137Z,4.1
2019-03-15T04:46:49.647Z,3.8
2019-03-15T04:48:50.031Z,4.6
2019-03-15T04:50:50.392Z,3.9
2019-03-15T04:52:49.747Z,3.9
2019-03-15T04:54:50.253Z,4.1
2019-03-15T04:56:49.802Z,4.3
2019-03-15T04:58:50.252Z,4.4
2019-03-15T05:00:49.674Z,4.4
2019-03-15T05:02:50.089Z,4.4
2019-03-15T05:04:49.861Z,4.3
2019-03-15T05:06:50.407Z,4.4
2019-03-15T05:08:49.902Z,4.4
2019-03-15T05:10:50.311Z,4.2
2019-03-15T05:12:49.741Z,4.2
2019-03-15T05:14:50.185Z,3.8
2019-03-15T05:16:49.649Z,4.3
2019-03-15T05:18:50.134Z,4.3
2019-03-15T05:20:49.602Z,4.3
2019-03-15T05:22:50.104Z,4.3
2019-03-15T05:24:49.663Z,4.6
2019-03-15T05:26:49.688Z,4.2
2019-03-15T05:28:50.094Z,4.2
2019-03-15T05:30:50.489Z,4.1
2019-03-15T05:32:49.906Z,4.1
2019-03-15T05:34:49.770Z,4.0
2019-03-15T05:36:50.323Z,4.5
2019-03-15T05:38:49.744Z,4.5
2019-03-15T05:40:50.144Z,4.7
2019-03-15T05:42:49.601Z,4.9
2019-03-15T05:44:49.976Z,4.9
2019-03-15T05:46:49.557Z,5.4
2019-03-15T05:48:49.969Z,5.0
2019-03-15T05:50:50.311Z,5.0
2019-03-15T05:52:49.744Z,5.1
2019-03-15T05:54:50.185Z,4.7
2019-03-15T05:56:49.767Z,5.3
2019-03-15T05:58:50.234Z,5.3
2019-03-15T06:00:49.596Z,5.7
2019-03-15T06:02:50.037Z,5.1
2019-03-15T06:04:49.967Z,5.6
2019-03-15T06:06:49.613Z,5.8
2019-03-15T06:08:49.954Z,5.8
2019-03-15T06:10:50.379Z,5.6
2019-03-15T06:12:49.750Z,5.1
2019-03-15T06:14:50.163Z,5.5
2019-03-15T06:16:49.642Z,5.5
2019-03-15T06:18:50.039Z,5.2
2019-03-15T06:20:50.466Z,5.8
2019-03-15T06:22:49.838Z,5.8
2019-03-15T06:24:50.250Z,5.4
2019-03-15T06:26:49.799Z,5.9
2019-03-15T06:28:50.101Z,5.9
2019-03-15T06:30:50.409Z,5.8
2019-03-15T06:32:49.941Z,5.8
2019-03-15T06:34:49.811Z,6.0
2019-03-15T06:36:49.933Z,6.2
2019-03-15T06:38:50.344Z,6.2
2019-03-15T06:40:49.824Z,6.0
2019-03-15T06:42:50.272Z,6.0
2019-03-15T06:44:58.325Z,5.5
2019-03-15T06:46:49.841Z,5.3
2019-03-15T06:48:50.237Z,5.3
2019-03-15T06:50:49.609Z,6.1
2019-03-15T06:52:50.084Z,5.2
2019-03-15T06:54:50.415Z,5.2
2019-03-15T06:56:49.974Z,5.2
2019-03-15T06:58:50.433Z,5.2
2019-03-15T07:00:49.899Z,5.1
2019-03-15T07:02:50.330Z,5.0
2019-03-15T07:04:50.086Z,5.0
2019-03-15T07:06:49.614Z,4.7
2019-03-15T07:08:50.043Z,5.2
2019-03-15T07:10:50.467Z,4.6
2019-03-15T07:12:49.922Z,4.8
2019-03-15T07:14:50.205Z,4.8
2019-03-15T07:16:49.902Z,4.7
2019-03-15T07:18:50.279Z,4.9
2019-03-15T07:20:49.768Z,4.9
2019-03-15T07:22:50.199Z,4.2
2019-03-15T07:24:49.602Z,4.4
2019-03-15T07:26:50.146Z,4.4
2019-03-15T07:28:50.469Z,4.8
2019-03-15T07:30:49.947Z,4.6
2019-03-15T07:32:50.316Z,4.4
2019-03-15T07:34:50.255Z,4.4
2019-03-15T07:36:49.872Z,3.9
2019-03-15T07:38:50.494Z,4.3
2019-03-15T07:40:49.969Z,4.8
2019-03-15T07:42:50.327Z,3.9
2019-03-15T07:44:49.851Z,3.9
2019-03-15T07:46:51.317Z,4.1
2019-03-15T07:48:49.601Z,4.2
2019-03-15T07:50:49.967Z,4.4
2019-03-15T07:52:50.349Z,4.4
2019-03-15T07:54:49.710Z,4.1
2019-03-15T07:56:50.173Z,4.2
2019-03-15T07:58:49.570Z,4.3
2019-03-15T08:00:50.098Z,4.3
2019-03-15T08:02:50.354Z,4.3
2019-03-15T08:04:50.439Z,3.9
2019-03-15T08:06:49.947Z,4.0
2019-03-15T08:08:50.280Z,4.1
2019-03-15T08:10:49.748Z,4.4
2019-03-15T08:12:50.175Z,4.4
2019-03-15T08:14:49.630Z,4.5
2019-03-15T08:16:50.187Z,4.6
2019-03-15T08:18:49.700Z,4.1
2019-03-15T08:20:50.106Z,4.1
2019-03-15T08:22:50.507Z,4.1
2019-03-15T08:24:52.167Z,4.1
2019-03-15T08:26:49.795Z,3.7
2019-03-15T08:28:50.265Z,3.7
2019-03-15T08:30:49.648Z,3.3
2019-03-15T08:32:50.074Z,3.3
2019-03-15T08:34:49.863Z,3.7
2019-03-15T08:36:50.387Z,3.1
2019-03-15T08:38:49.750Z,3.1
2019-03-15T08:40:50.062Z,3.1
2019-03-15T08:42:50.291Z,3.3
2019-03-15T08:44:50.494Z,3.9
2019-03-15T08:46:50.159Z,4.0
2019-03-15T08:48:49.537Z,3.6
2019-03-15T08:50:49.853Z,3.9
2019-03-15T08:52:50.096Z,3.9
2019-03-15T08:54:50.350Z,4.2
2019-03-15T08:56:49.527Z,4.2
2019-03-15T08:58:49.745Z,4.1
2019-03-15T09:00:49.995Z,4.1
2019-03-15T09:02:50.218Z,4.8
2019-03-15T09:04:50.676Z,3.7
2019-03-15T09:06:50.134Z,3.3
2019-03-15T09:08:50.341Z,3.3
2019-03-15T09:10:49.720Z,3.3
2019-03-15T09:12:50.006Z,3.1
2019-03-15T09:14:50.283Z,2.9
2019-03-15T09:16:49.648Z,3.1
2019-03-15T09:18:49.908Z,3.0
2019-03-15T09:20:50.117Z,3.0
2019-03-15T09:22:50.332Z,3.0
2019-03-15T09:24:49.618Z,2.9
2019-03-15T09:26:50.038Z,3.1
2019-03-15T09:28:50.344Z,4.5
2019-03-15T09:30:49.646Z,4.5
2019-03-15T09:32:49.958Z,4.2
2019-03-15T09:34:49.525Z,3.8
2019-03-15T09:36:50.772Z,3.7
2019-03-15T09:38:49.958Z,3.8
2019-03-15T09:40:50.256Z,3.8
2019-03-15T09:42:49.537Z,4.1
2019-03-15T09:44:49.805Z,3.9
2019-03-15T09:46:50.229Z,4.1
2019-03-15T09:48:50.443Z,4.1
2019-03-15T09:50:52.015Z,4.3
2019-03-15T09:52:50.343Z,4.7
2019-03-15T09:54:49.653Z,4.6
2019-03-15T09:56:49.948Z,3.9
2019-03-15T09:58:50.194Z,3.9
2019-03-15T10:00:50.451Z,4.0
2019-03-15T10:02:49.672Z,3.4
2019-03-15T10:04:50.278Z,3.2
2019-03-15T10:06:49.590Z,2.5
2019-03-15T10:08:49.804Z,2.5
2019-03-15T10:10:50.035Z,2.4
2019-03-15T10:12:50.297Z,1.9
2019-03-15T10:14:49.772Z,1.9
2019-03-15T10:16:50.183Z,2.3
2019-03-15T10:18:50.776Z,2.3
2019-03-15T10:20:50.057Z,1.7
2019-03-15T10:23:05.713Z,1.6
2019-03-15T10:24:49.608Z,1.8
2019-03-15T10:26:49.889Z,1.6
2019-03-15T10:28:50.297Z,1.6
2019-03-15T10:30:50.492Z,1.6
2019-03-15T10:32:49.818Z,1.2
2019-03-15T10:34:50.402Z,1.4
2019-03-15T10:36:49.538Z,1.6
2019-03-15T10:38:50.400Z,1.6
2019-03-15T10:40:49.788Z,1.4
2019-03-15T10:42:50.225Z,1.6
2019-03-15T10:44:49.712Z,1.4
2019-03-15T10:46:50.207Z,1.4
2019-03-15T10:48:50.428Z,2.6
2019-03-15T10:50:49.736Z,1.4
2019-03-15T10:52:50.066Z,1.7
2019-03-15T10:54:50.392Z,1.8
2019-03-15T10:56:49.733Z,1.8
2019-03-15T10:58:50.096Z,1.7
2019-03-15T11:00:50.284Z,1.7
2019-03-15T11:02:49.540Z,1.6
2019-03-15T11:04:50.130Z,1.6
2019-03-15T11:06:49.649Z,1.6
2019-03-15T11:08:49.899Z,1.7
2019-03-15T11:10:50.206Z,1.7
2019-03-15T11:12:50.440Z,1.4
2019-03-15T11:14:49.772Z,1.4
2019-03-15T11:16:50.154Z,1.5
2019-03-15T11:18:50.336Z,1.5
2019-03-15T11:20:49.600Z,1.5
2019-03-15T11:22:49.812Z,1.5
2019-03-15T11:24:50.010Z,1.8
2019-03-15T11:26:50.330Z,1.8
2019-03-15T11:28:49.705Z,1.7
2019-03-15T11:30:49.904Z,1.8
2019-03-15T11:32:50.555Z,1.8
2019-03-15T11:34:50.431Z,1.8
2019-03-15T11:36:58.717Z,1.8
2019-03-15T11:38:50.503Z,1.9
2019-03-15T11:40:49.730Z,1.9
2019-03-15T11:42:50.049Z,1.9
2019-03-15T11:44:50.315Z,2.0
2019-03-15T11:46:49.798Z,2.0
2019-03-15T11:48:50.435Z,2.0
2019-03-15T11:50:49.832Z,2.3
2019-03-15T11:52:50.194Z,2.3
2019-03-15T11:54:50.122Z,2.3
2019-03-15T11:56:51.141Z,2.1
2019-03-15T11:58:49.607Z,2.6
2019-03-15T12:00:49.918Z,2.6
2019-03-15T12:02:50.241Z,2.6
2019-03-15T12:04:50.058Z,2.6
2019-03-15T12:06:50.546Z,2.4
2019-03-15T12:08:49.901Z,3.0
2019-03-15T12:10:50.247Z,2.1
2019-03-15T12:12:49.710Z,2.1
2019-03-15T12:14:50.085Z,2.8
2019-03-15T12:16:49.579Z,2.8
2019-03-15T12:18:49.919Z,2.4
2019-03-15T12:20:50.335Z,2.1
2019-03-15T12:22:49.741Z,2.1
2019-03-15T12:24:50.122Z,2.4
2019-03-15T12:26:50.502Z,2.2
2019-03-15T12:28:49.811Z,2.1
2019-03-15T12:30:50.011Z,2.1
2019-03-15T12:32:50.372Z,2.2
2019-03-15T12:34:50.245Z,2.2
2019-03-15T12:36:49.807Z,2.2
2019-03-15T12:38:50.176Z,1.8
2019-03-15T12:40:50.480Z,1.8
2019-03-15T12:42:49.796Z,1.7
2019-03-15T12:44:50.203Z,1.7
2019-03-15T12:46:49.712Z,1.8
2019-03-15T12:48:50.043Z,1.7
2019-03-15T12:50:49.735Z,1.7
2019-03-15T12:52:50.401Z,1.6
2019-03-15T12:54:49.806Z,1.4
2019-03-15T12:56:54.348Z,1.4
2019-03-15T12:58:49.628Z,1.3
2019-03-15T13:00:49.998Z,1.3
2019-03-15T13:02:50.405Z,1.3
2019-03-15T13:04:52.266Z,1.4
2019-03-15T13:06:49.800Z,1.4
2019-03-15T13:08:50.173Z,1.5
2019-03-15T13:10:50.421Z,1.5
2019-03-15T13:12:49.758Z,1.2
2019-03-15T13:14:50.069Z,1.3
2019-03-15T13:16:49.639Z,1.1
2019-03-15T13:18:50.128Z,1.1
2019-03-15T13:20:50.550Z,1.2
2019-03-15T13:22:49.905Z,1.3
2019-03-15T13:24:50.232Z,1.2
2019-03-15T13:26:49.688Z,1.0
2019-03-15T13:28:50.003Z,1.0
2019-03-15T13:30:50.414Z,1.2
2019-03-15T13:32:49.975Z,1.1
2019-03-15T13:34:49.768Z,1.1
2019-03-15T13:36:50.346Z,1.1
2019-03-15T13:38:49.815Z,1.0
2019-03-15T13:40:50.174Z,1.1
2019-03-15T13:42:49.615Z,1.4
2019-03-15T13:44:50.018Z,1.0
2019-03-15T13:46:49.603Z,1.0
2019-03-15T13:48:49.914Z,1.0
2019-03-15T13:50:50.328Z,1.2
2019-03-15T13:52:49.665Z,1.0
2019-03-15T13:54:50.023Z,1.1
2019-03-15T13:56:49.603Z,1.1
2019-03-15T13:58:57.757Z,1.1
2019-03-15T14:00:50.237Z,0.8
2019-03-15T14:02:49.551Z,0.8
2019-03-15T14:04:50.344Z,1.0
2019-03-15T14:06:49.750Z,1.1
2019-03-15T14:08:50.090Z,1.1
2019-03-15T14:10:50.425Z,1.0
2019-03-15T14:12:49.804Z,1.0
2019-03-15T14:14:50.093Z,0.9
2019-03-15T14:16:49.653Z,0.9
2019-03-15T14:18:49.993Z,0.9
2019-03-15T14:20:50.455Z,0.9
2019-03-15T14:22:49.744Z,0.8
2019-03-15T14:24:50.030Z,0.9
2019-03-15T14:26:51.196Z,0.9
2019-03-15T14:28:49.632Z,0.9
2019-03-15T14:30:49.929Z,0.9
2019-03-15T14:32:50.378Z,1.8
2019-03-15T14:34:50.099Z,0.9
2019-03-15T14:36:49.751Z,0.9
2019-03-15T14:38:50.374Z,0.9
2019-03-15T14:40:50.527Z,0.9
2019-03-15T14:42:49.769Z,0.9
2019-03-15T14:44:50.658Z,1.0
2019-03-15T14:46:49.610Z,0.9
2019-03-15T14:48:49.915Z,0.9
2019-03-15T14:50:50.294Z,1.0
2019-03-15T14:52:49.553Z,1.0
2019-03-15T14:54:49.765Z,0.9
2019-03-15T14:56:50.187Z,0.9
2019-03-15T14:58:50.465Z,0.9
2019-03-15T15:00:49.886Z,0.9
2019-03-15T15:02:49.528Z,0.9
2019-03-15T15:04:49.652Z,0.9
2019-03-15T15:06:50.097Z,0.8
2019-03-15T15:08:50.287Z,0.9
2019-03-15T15:10:49.574Z,0.8
2019-03-15T15:12:49.941Z,0.8
2019-03-15T15:14:50.121Z,0.7
2019-03-15T15:16:49.561Z,0.8
2019-03-15T15:18:49.707Z,0.7
2019-03-15T15:20:50.090Z,0.9
2019-03-15T15:22:49.630Z,0.9
2019-03-15T15:24:49.920Z,0.9
2019-03-15T15:26:50.375Z,1.0
2019-03-15T15:28:49.524Z,0.8
2019-03-15T15:30:49.679Z,0.9
2019-03-15T15:32:49.854Z,0.8
2019-03-15T15:34:50.346Z,0.8
2019-03-15T15:36:49.830Z,0.8
2019-03-15T15:38:50.029Z,0.9
2019-03-15T15:40:50.227Z,0.9
2019-03-15T15:42:49.542Z,0.9
2019-03-15T15:44:49.860Z,0.9
2019-03-15T15:46:50.273Z,1.0
2019-03-15T15:48:50.578Z,1.0
2019-03-15T15:50:49.812Z,0.8
2019-03-15T15:52:50.153Z,0.8
2019-03-15T15:54:50.387Z,0.9
2019-03-15T15:56:51.224Z,1.0
2019-03-15T15:58:50.469Z,1.0
2019-03-15T16:00:49.628Z,1.0
2019-03-15T16:02:49.811Z,1.0
2019-03-15T16:04:50.427Z,1.0
2019-03-15T16:06:49.852Z,1.0
2019-03-15T16:08:50.118Z,1.0
2019-03-15T16:10:50.327Z,1.1
2019-03-15T16:12:49.684Z,1.1
2019-03-15T16:14:49.909Z,1.1
2019-03-15T16:16:50.315Z,1.0
2019-03-15T16:18:49.665Z,1.2
2019-03-15T16:20:50.105Z,1.2
2019-03-15T16:22:50.476Z,1.1
2019-03-15T16:24:49.665Z,1.2
2019-03-15T16:26:50.017Z,1.1
2019-03-15T16:28:50.216Z,1.2
2019-03-15T16:30:50.458Z,1.2
2019-03-15T16:32:49.752Z,1.0
2019-03-15T16:34:50.385Z,1.0
2019-03-15T16:36:49.757Z,1.0
2019-03-15T16:38:50.066Z,1.2
2019-03-15T16:40:50.332Z,1.2
2019-03-15T16:42:50.498Z,1.2
2019-03-15T16:44:49.922Z,1.2
2019-03-15T16:46:50.297Z,1.1
2019-03-15T16:48:49.630Z,1.0
2019-03-15T16:50:52.109Z,1.0
2019-03-15T16:52:50.443Z,1.0
2019-03-15T16:54:49.683Z,0.9
2019-03-15T16:56:50.003Z,1.1
2019-03-15T16:58:50.287Z,1.1
2019-03-15T17:00:49.557Z,1.1
2019-03-15T17:02:49.826Z,1.1
2019-03-15T17:04:49.630Z,1.2
2019-03-15T17:06:49.947Z,1.2
2019-03-15T17:08:50.329Z,1.1
2019-03-15T17:10:49.660Z,1.1
2019-03-15T17:12:49.973Z,1.1
2019-03-15T17:14:50.375Z,1.1
2019-03-15T17:16:49.930Z,1.1
2019-03-15T17:18:50.204Z,1.1
2019-03-15T17:20:50.516Z,1.1
2019-03-15T17:22:49.906Z,1.1
2019-03-15T17:24:50.351Z,0.9
2019-03-15T17:26:51.754Z,1.0
2019-03-15T17:28:59.087Z,0.9
2019-03-15T17:30:49.561Z,0.9
2019-03-15T17:32:49.768Z,1.0
2019-03-15T17:34:50.345Z,1.0
2019-03-15T17:36:49.689Z,1.0
2019-03-15T17:38:49.947Z,1.0
2019-03-15T17:40:50.196Z,1.1
2019-03-15T17:42:50.497Z,1.0
2019-03-15T17:44:49.718Z,1.1
2019-03-15T17:46:50.134Z,1.1
2019-03-15T17:48:50.359Z,1.2
2019-03-15T17:50:49.685Z,1.0
2019-03-15T17:52:49.890Z,1.0
2019-03-15T17:54:50.203Z,1.2
2019-03-15T17:56:49.880Z,1.2
2019-03-15T17:58:50.194Z,1.2
2019-03-15T18:00:50.383Z,1.2
2019-03-15T18:02:49.729Z,1.2
2019-03-15T18:04:50.359Z,1.1
2019-03-15T18:06:49.990Z,1.1
2019-03-15T18:08:50.272Z,1.1
2019-03-15T18:10:50.528Z,1.2
2019-03-15T18:12:49.792Z,1.2
2019-03-15T18:14:50.038Z,2.4
2019-03-15T18:16:50.425Z,2.4
2019-03-15T18:18:49.636Z,1.0
2019-03-15T18:20:49.855Z,1.1
2019-03-15T18:22:50.036Z,1.1
2019-03-15T18:24:50.296Z,1.2
2019-03-15T18:26:49.626Z,1.2
2019-03-15T18:28:49.862Z,1.3
2019-03-15T18:30:50.146Z,1.3
2019-03-15T18:32:50.435Z,1.2
2019-03-15T18:34:50.208Z,1.2
2019-03-15T18:36:49.618Z,1.1
2019-03-15T18:38:49.826Z,1.1
2019-03-15T18:40:50.053Z,1.2
2019-03-15T18:42:50.389Z,1.2
2019-03-15T18:44:49.684Z,1.1
2019-03-15T18:46:50.204Z,1.2
2019-03-15T18:48:50.469Z,1.2
2019-03-15T18:50:49.753Z,1.2
2019-03-15T18:52:50.023Z,1.2
2019-03-15T18:54:50.274Z,1.8
2019-03-15T18:56:49.761Z,1.8
2019-03-15T18:58:50.063Z,1.2
2019-03-15T19:00:49.521Z,1.3
2019-03-15T19:02:49.756Z,1.2
2019-03-15T19:04:50.319Z,1.2
2019-03-15T19:06:49.711Z,1.5
2019-03-15T19:08:49.885Z,1.3
2019-03-15T19:10:50.126Z,1.3
2019-03-15T19:12:50.262Z,1.3
2019-03-15T19:14:49.566Z,1.3
2019-03-15T19:16:49.962Z,1.4
2019-03-15T19:18:50.156Z,1.4
2019-03-15T19:20:50.742Z,1.4
2019-03-15T19:22:49.856Z,1.6
2019-03-15T19:24:50.144Z,1.7
2019-03-15T19:26:50.479Z,1.7
2019-03-15T19:28:49.714Z,1.4
2019-03-15T19:30:49.926Z,1.5
2019-03-15T19:32:50.268Z,1.3
2019-03-15T19:34:49.962Z,1.3
2019-03-15T19:36:50.286Z,1.4
2019-03-15T19:38:49.581Z,1.2
2019-03-15T19:40:49.820Z,1.2
2019-03-15T19:42:50.136Z,1.1
2019-03-15T19:44:50.377Z,1.1
2019-03-15T19:46:49.881Z,1.2
2019-03-15T19:48:50.033Z,1.1
2019-03-15T19:50:50.248Z,1.1
2019-03-15T19:52:49.522Z,1.1
2019-03-15T19:55:00.835Z,0.8
2019-03-15T19:56:50.095Z,0.9
2019-03-15T19:58:50.393Z,0.9
2019-03-15T20:00:49.639Z,0.9
2019-03-15T20:02:49.991Z,0.9
2019-03-15T20:04:49.516Z,0.9
2019-03-15T20:06:50.142Z,0.8
2019-03-15T20:08:50.353Z,0.9
2019-03-15T20:10:49.684Z,0.9
2019-03-15T20:12:50.008Z,0.9
2019-03-15T20:14:50.313Z,0.8
2019-03-15T20:16:49.690Z,0.8
2019-03-15T20:18:49.971Z,0.9
2019-03-15T20:20:50.404Z,0.8
2019-03-15T20:22:49.548Z,0.8
2019-03-15T20:24:49.729Z,0.8
2019-03-15T20:26:50.034Z,0.8
2019-03-15T20:28:50.239Z,0.8
2019-03-15T20:30:52.545Z,0.8
2019-03-15T20:32:49.873Z,0.9
2019-03-15T20:34:50.444Z,0.8
2019-03-15T20:36:49.867Z,0.7
2019-03-15T20:38:50.127Z,0.9
2019-03-15T20:40:50.370Z,0.9
2019-03-15T20:42:49.661Z,0.6
2019-03-15T20:44:49.924Z,0.6
2019-03-15T20:46:50.241Z,0.9
2019-03-15T20:48:49.523Z,0.7
2019-03-15T20:50:49.861Z,0.7
2019-03-15T20:52:50.109Z,0.7
2019-03-15T20:54:50.363Z,0.7
2019-03-15T20:56:49.790Z,0.6
2019-03-15T20:58:50.097Z,0.7
2019-03-15T21:00:50.318Z,0.8
2019-03-15T21:02:49.756Z,0.8
2019-03-15T21:04:49.547Z,0.8
2019-03-15T21:06:49.931Z,0.8
2019-03-15T21:08:50.180Z,0.7
2019-03-15T21:10:51.877Z,0.7
2019-03-15T21:12:50.186Z,0.7
2019-03-15T21:14:50.429Z,0.7
2019-03-15T21:16:49.856Z,0.8
2019-03-15T21:18:50.128Z,0.7
2019-03-15T21:20:50.372Z,0.7
2019-03-15T21:22:49.718Z,0.8
2019-03-15T21:24:50.083Z,0.7
2019-03-15T21:26:49.568Z,0.7
2019-03-15T21:28:49.753Z,0.7
2019-03-15T21:30:50.067Z,1.1
2019-03-15T21:32:50.317Z,1.1
2019-03-15T21:34:49.895Z,0.8
2019-03-15T21:36:50.342Z,0.7
2019-03-15T21:38:49.655Z,0.7
2019-03-15T21:40:50.002Z,0.7
2019-03-15T21:42:50.164Z,0.9
2019-03-15T21:44:50.403Z,1.4
2019-03-15T21:46:49.820Z,0.7
2019-03-15T21:48:50.027Z,0.7
2019-03-15T21:50:50.295Z,0.8
2019-03-15T21:52:49.532Z,0.7
2019-03-15T21:54:49.729Z,0.7
2019-03-15T21:56:50.167Z,0.8
2019-03-15T21:58:50.428Z,0.8
2019-03-15T22:01:02.476Z,0.7
2019-03-15T22:02:49.864Z,0.8
2019-03-15T22:04:50.426Z,0.9
2019-03-15T22:06:49.891Z,0.9
2019-03-15T22:08:50.058Z,0.8
2019-03-15T22:10:50.382Z,0.9
2019-03-15T22:12:49.849Z,0.9
2019-03-15T22:14:50.207Z,0.9
2019-03-15T22:16:49.748Z,0.8
2019-03-15T22:18:49.953Z,0.8
2019-03-15T22:20:50.274Z,0.8
2019-03-15T22:22:50.457Z,0.9
2019-03-15T22:24:49.833Z,0.8
2019-03-15T22:26:50.194Z,0.8
2019-03-15T22:28:50.457Z,0.8
2019-03-15T22:30:49.789Z,0.8
2019-03-15T22:32:50.185Z,1.0
2019-03-15T22:34:49.884Z,0.8
2019-03-15T22:36:50.287Z,0.8
2019-03-15T22:38:49.608Z,0.8
2019-03-15T22:40:49.796Z,0.8
2019-03-15T22:42:50.077Z,0.8
2019-03-15T22:44:50.269Z,0.8
2019-03-15T22:46:49.724Z,0.9
2019-03-15T22:48:49.984Z,0.9
2019-03-15T22:50:50.247Z,0.8
2019-03-15T22:52:49.588Z,0.8
2019-03-15T22:54:49.736Z,0.8
2019-03-15T22:56:50.117Z,0.7
2019-03-15T22:58:50.465Z,0.8
2019-03-15T23:00:49.726Z,0.9
2019-03-15T23:02:50.134Z,0.9
2019-03-15T23:04:50.300Z,0.9
2019-03-15T23:06:49.710Z,0.8
2019-03-15T23:08:50.048Z,0.8
2019-03-15T23:10:50.382Z,0.8
2019-03-15T23:12:49.680Z,0.8
2019-03-15T23:14:49.968Z,0.9
2019-03-15T23:16:50.340Z,0.9
2019-03-15T23:18:49.660Z,0.9
2019-03-15T23:20:49.897Z,0.9
2019-03-15T23:22:50.244Z,0.8
2019-03-15T23:24:50.422Z,0.8
2019-03-15T23:26:49.873Z,0.8
2019-03-15T23:28:50.161Z,0.9
2019-03-15T23:30:50.430Z,0.9
2019-03-15T23:32:49.708Z,0.9
2019-03-15T23:34:50.157Z,0.8
2019-03-15T23:36:49.591Z,0.9
2019-03-15T23:38:49.750Z,0.9
2019-03-15T23:40:49.993Z,0.7
2019-03-15T23:42:50.240Z,0.7
2019-03-15T23:44:50.467Z,0.8
2019-03-15T23:46:49.908Z,0.8
2019-03-15T23:48:50.271Z,0.8
2019-03-15T23:50:50.557Z,0.8
2019-03-15T23:52:49.887Z,0.8
2019-03-15T23:54:50.239Z,0.8
2019-03-15T23:56:49.644Z,0.7
2019-03-15T23:58:50.002Z,0.9
